createdAt,value
2018-10-05T00:00:54.738Z,7.80
2018-10-05T00:03:25.070Z,7.33
2018-10-05T00:08:39.966Z,6.90
2018-10-05T00:11:10.377Z,6.60
2018-10-05T00:13:40.733Z,9.20
2018-10-05T00:16:11.048Z,7.03
2018-10-05T00:18:41.394Z,7.73
2018-10-05T00:21:11.762Z,7.60
2018-10-05T00:23:42.125Z,7.23
2018-10-05T00:26:12.421Z,7.73
2018-10-05T00:28:42.765Z,6.27
2018-10-05T00:31:13.101Z,8.37
2018-10-05T00:33:43.412Z,6.13
2018-10-05T00:36:13.721Z,5.70
2018-10-05T00:38:44.097Z,5.00
2018-10-05T00:41:14.472Z,6.80
2018-10-05T00:43:44.833Z,5.53
2018-10-05T00:46:15.230Z,5.70
2018-10-05T00:48:45.504Z,6.20
2018-10-05T00:51:15.860Z,8.20
2018-10-05T00:53:46.175Z,7.63
2018-10-05T00:56:16.532Z,7.73
2018-10-05T00:58:46.807Z,7.67
2018-10-05T01:01:17.147Z,6.40
2018-10-05T01:03:47.438Z,8.67
2018-10-05T01:06:17.804Z,10.00
2018-10-05T01:08:48.111Z,5.80
2018-10-05T01:11:18.485Z,5.27
2018-10-05T01:13:48.805Z,10.53
2018-10-05T01:16:19.120Z,9.23
2018-10-05T01:18:49.436Z,7.20
2018-10-05T01:21:19.840Z,9.20
2018-10-05T01:23:50.167Z,7.73
2018-10-05T01:26:20.558Z,9.10
2018-10-05T01:28:50.832Z,7.03
2018-10-05T01:31:21.161Z,6.73
2018-10-05T01:33:51.611Z,7.10
2018-10-05T01:36:21.870Z,8.03
2018-10-05T01:38:52.293Z,8.43
2018-10-05T01:41:22.586Z,9.37
2018-10-05T01:43:52.927Z,6.47
2018-10-05T01:46:23.251Z,7.63
2018-10-05T01:48:53.623Z,8.33
2018-10-05T01:51:32.615Z,6.20
2018-10-05T01:54:04.229Z,8.73
2018-10-05T01:56:35.212Z,7.97
2018-10-05T01:59:05.611Z,5.90
2018-10-05T02:01:36.010Z,6.13
2018-10-05T02:04:06.371Z,7.20
2018-10-05T02:06:36.654Z,6.57
2018-10-05T02:09:07.356Z,12.53
2018-10-05T02:11:37.675Z,7.87
2018-10-05T02:14:08.048Z,11.23
2018-10-05T02:16:38.329Z,7.57
2018-10-05T02:19:08.684Z,6.70
2018-10-05T02:21:38.954Z,8.43
2018-10-05T02:24:09.282Z,8.53
2018-10-05T02:26:39.644Z,6.47
2018-10-05T02:29:10.035Z,7.00
2018-10-05T02:31:40.321Z,6.73
2018-10-05T02:34:10.654Z,5.37
2018-10-05T02:36:41.189Z,8.87
2018-10-05T02:39:12.992Z,10.43
2018-10-05T02:41:43.517Z,9.17
2018-10-05T02:44:13.789Z,5.47
2018-10-05T02:46:44.155Z,7.37
2018-10-05T02:49:14.511Z,8.27
2018-10-05T02:51:44.826Z,10.00
2018-10-05T02:54:15.093Z,8.33
2018-10-05T02:56:45.376Z,6.37
2018-10-05T02:59:15.725Z,5.47
2018-10-05T03:02:02.815Z,7.50
2018-10-05T03:04:33.245Z,6.50
2018-10-05T03:07:03.628Z,8.00
2018-10-05T03:12:36.467Z,9.70
2018-10-05T03:15:06.817Z,7.07
2018-10-05T03:17:37.191Z,8.33
2018-10-05T03:20:07.566Z,10.20
2018-10-05T03:22:37.900Z,4.83
2018-10-05T03:25:08.244Z,7.10
2018-10-05T03:27:38.638Z,6.40
2018-10-05T03:30:08.965Z,6.23
2018-10-05T03:32:39.414Z,8.20
2018-10-05T03:35:09.738Z,6.93
2018-10-05T03:37:40.096Z,5.67
2018-10-05T03:40:10.428Z,8.20
2018-10-05T03:42:40.786Z,9.43
2018-10-05T03:45:11.207Z,8.30
2018-10-05T03:47:41.553Z,7.83
2018-10-05T03:50:11.831Z,6.83
2018-10-05T03:52:42.198Z,5.23
2018-10-05T03:55:12.542Z,7.90
2018-10-05T03:57:42.931Z,10.17
2018-10-05T04:00:13.259Z,5.93
2018-10-05T04:02:43.621Z,7.23
2018-10-05T04:05:13.929Z,8.27
2018-10-05T04:07:44.310Z,7.27
2018-10-05T04:10:14.638Z,9.43
2018-10-05T04:12:45.028Z,6.17
2018-10-05T04:15:15.337Z,8.47
2018-10-05T04:17:45.675Z,8.10
2018-10-05T04:20:15.967Z,5.17
2018-10-05T04:22:46.345Z,6.53
2018-10-05T04:25:16.637Z,7.17
2018-10-05T04:27:46.960Z,9.03
2018-10-05T04:30:17.264Z,8.30
2018-10-05T04:33:18.761Z,8.13
2018-10-05T04:35:49.225Z,7.53
2018-10-05T04:38:19.464Z,8.90
2018-10-05T04:40:49.770Z,12.23
2018-10-05T04:43:20.098Z,6.53
2018-10-05T04:45:50.433Z,9.10
2018-10-05T04:48:20.719Z,8.53
2018-10-05T04:50:51.080Z,5.73
2018-10-05T04:53:21.410Z,7.63
2018-10-05T04:55:51.697Z,6.87
2018-10-05T04:58:22.032Z,6.90
2018-10-05T05:00:52.364Z,6.73
2018-10-05T05:03:22.725Z,8.47
2018-10-05T05:05:53.112Z,6.23
2018-10-05T05:08:23.460Z,6.73
2018-10-05T05:10:53.871Z,8.90
2018-10-05T05:13:24.226Z,5.50
2018-10-05T05:16:09.198Z,7.77
2018-10-05T05:18:39.494Z,9.10
2018-10-05T05:21:09.844Z,7.37
2018-10-05T05:23:40.131Z,9.97
2018-10-05T05:26:10.454Z,7.93
2018-10-05T05:28:40.763Z,8.50
2018-10-05T05:31:11.102Z,10.27
2018-10-05T05:33:41.525Z,7.03
2018-10-05T05:36:11.839Z,6.90
2018-10-05T05:38:42.176Z,7.93
2018-10-05T05:41:12.549Z,8.37
2018-10-05T05:43:42.823Z,10.40
2018-10-05T05:46:13.191Z,12.37
2018-10-05T05:48:43.548Z,8.90
2018-10-05T05:51:13.906Z,8.10
2018-10-05T05:53:44.204Z,8.80
2018-10-05T05:56:14.571Z,7.53
2018-10-05T05:58:45.190Z,11.33
2018-10-05T06:01:15.554Z,10.37
2018-10-05T06:03:45.925Z,9.27
2018-10-05T06:06:16.273Z,9.77
2018-10-05T06:08:46.715Z,10.80
2018-10-05T06:11:17.037Z,11.33
2018-10-05T06:13:47.366Z,6.10
2018-10-05T06:16:17.750Z,10.87
2018-10-05T06:18:48.053Z,9.50
2018-10-05T06:21:18.404Z,9.80
2018-10-05T06:23:48.792Z,10.03
2018-10-05T06:26:19.093Z,9.00
2018-10-05T06:28:49.442Z,8.93
2018-10-05T06:31:19.754Z,6.33
2018-10-05T06:33:50.134Z,10.30
2018-10-05T06:36:20.426Z,7.43
2018-10-05T06:38:50.849Z,15.27
2018-10-05T06:41:21.164Z,7.47
2018-10-05T06:43:51.694Z,7.10
2018-10-05T06:46:22.014Z,8.10
2018-10-05T06:48:52.311Z,8.00
2018-10-05T06:51:22.668Z,9.50
2018-10-05T06:53:53.035Z,8.20
2018-10-05T06:56:23.360Z,9.17
2018-10-05T06:58:53.668Z,7.33
2018-10-05T07:01:24.062Z,6.97
2018-10-05T07:03:54.416Z,6.77
2018-10-05T07:06:24.817Z,5.03
2018-10-05T07:08:55.126Z,6.00
2018-10-05T07:11:25.527Z,7.07
2018-10-05T07:13:55.830Z,7.10
2018-10-05T07:16:26.225Z,8.67
2018-10-05T07:18:56.651Z,5.20
2018-10-05T07:21:27.051Z,6.80
2018-10-05T07:23:57.322Z,9.57
2018-10-05T07:26:27.663Z,6.93
2018-10-05T07:28:58.137Z,7.97
2018-10-05T07:31:28.432Z,10.77
2018-10-05T07:33:58.731Z,7.93
2018-10-05T07:36:29.079Z,7.43
2018-10-05T07:38:59.403Z,8.93
2018-10-05T07:41:30.086Z,8.47
2018-10-05T07:44:00.462Z,8.27
2018-10-05T07:46:30.853Z,8.23
2018-10-05T07:49:01.146Z,8.30
2018-10-05T07:51:31.556Z,9.27
2018-10-05T07:54:01.995Z,6.80
2018-10-05T07:56:32.371Z,6.87
2018-10-05T07:59:02.734Z,7.27
2018-10-05T08:01:33.071Z,8.57
2018-10-05T08:04:03.386Z,9.50
2018-10-05T08:06:33.799Z,9.90
2018-10-05T08:09:05.496Z,7.17
2018-10-05T08:11:35.928Z,9.57
2018-10-05T08:14:06.250Z,6.73
2018-10-05T08:16:36.623Z,8.07
2018-10-05T08:19:07.045Z,6.87
2018-10-05T08:21:37.439Z,4.63
2018-10-05T08:24:08.186Z,9.97
2018-10-05T08:26:38.505Z,6.37
2018-10-05T08:29:08.875Z,6.10
2018-10-05T08:31:39.208Z,8.20
2018-10-05T08:34:09.600Z,5.57
2018-10-05T08:36:39.899Z,5.90
2018-10-05T08:39:11.564Z,5.77
2018-10-05T08:41:42.014Z,7.37
2018-10-05T08:44:12.684Z,4.33
2018-10-05T08:46:43.096Z,4.20
2018-10-05T08:49:13.448Z,8.33
2018-10-05T08:51:43.824Z,7.53
2018-10-05T08:54:14.170Z,5.17
2018-10-05T08:56:44.466Z,7.90
2018-10-05T08:59:14.773Z,6.93
2018-10-05T09:01:45.081Z,5.67
2018-10-05T09:04:15.422Z,5.37
2018-10-05T09:06:45.761Z,4.63
2018-10-05T09:09:16.166Z,5.23
2018-10-05T09:11:46.479Z,4.47
2018-10-05T09:14:16.890Z,5.03
2018-10-05T09:16:47.199Z,3.67
2018-10-05T09:19:17.522Z,4.43
2018-10-05T09:21:47.848Z,7.97
2018-10-05T09:24:18.311Z,4.83
2018-10-05T09:26:48.579Z,7.53
2018-10-05T09:29:18.974Z,4.87
2018-10-05T09:31:49.259Z,9.77
2018-10-05T09:34:19.535Z,5.83
2018-10-05T09:36:49.971Z,7.43
2018-10-05T09:39:20.358Z,5.67
2018-10-05T09:41:50.732Z,6.07
2018-10-05T09:44:21.095Z,5.60
2018-10-05T09:46:51.396Z,2.60
2018-10-05T09:49:21.830Z,3.87
2018-10-05T09:51:52.189Z,6.40
2018-10-05T09:54:22.516Z,4.97
2018-10-05T09:56:52.815Z,4.30
2018-10-05T09:59:23.229Z,4.37
2018-10-05T10:01:58.656Z,7.37
2018-10-05T10:04:28.939Z,5.83
2018-10-05T10:06:59.327Z,5.03
2018-10-05T10:09:29.779Z,3.67
2018-10-05T10:12:00.138Z,7.33
2018-10-05T10:14:30.550Z,5.57
2018-10-05T10:17:00.908Z,3.20
2018-10-05T10:19:31.265Z,5.10
2018-10-05T10:22:01.674Z,5.47
2018-10-05T10:24:31.984Z,4.93
2018-10-05T10:27:02.350Z,4.27
2018-10-05T10:29:33.127Z,6.63
2018-10-05T10:32:03.385Z,3.60
2018-10-05T10:34:33.750Z,4.87
2018-10-05T10:37:04.068Z,3.47
2018-10-05T10:39:34.475Z,3.37
2018-10-05T10:42:04.769Z,2.93
2018-10-05T10:44:35.158Z,4.73
2018-10-05T10:47:05.582Z,5.40
2018-10-05T10:49:35.934Z,5.33
2018-10-05T10:52:06.477Z,3.23
2018-10-05T10:54:36.855Z,3.93
2018-10-05T10:57:07.349Z,4.10
2018-10-05T10:59:37.672Z,2.90
2018-10-05T11:02:08.031Z,3.53
2018-10-05T11:04:38.520Z,5.67
2018-10-05T11:07:08.877Z,4.23
2018-10-05T11:09:39.274Z,5.13
2018-10-05T11:12:09.590Z,4.87
2018-10-05T11:14:39.898Z,2.83
2018-10-05T11:17:10.360Z,2.43
2018-10-05T11:19:40.699Z,5.30
2018-10-05T11:22:11.009Z,5.63
2018-10-05T11:24:41.366Z,2.40
2018-10-05T11:27:12.059Z,3.97
2018-10-05T11:29:42.460Z,3.97
2018-10-05T11:32:12.806Z,4.37
2018-10-05T11:34:43.156Z,2.53
2018-10-05T11:37:13.590Z,3.73
2018-10-05T11:39:43.956Z,3.67
2018-10-05T11:42:14.401Z,3.93
2018-10-05T11:44:44.784Z,3.70
2018-10-05T11:47:15.203Z,2.40
2018-10-05T11:49:45.577Z,2.97
2018-10-05T11:52:15.901Z,3.03
2018-10-05T11:54:46.184Z,2.53
2018-10-05T11:57:16.545Z,2.77
2018-10-05T11:59:46.913Z,2.63
2018-10-05T12:02:17.313Z,3.50
2018-10-05T12:04:47.633Z,3.47
2018-10-05T12:07:18.008Z,2.10
2018-10-05T12:09:48.320Z,4.37
2018-10-05T12:12:18.664Z,2.80
2018-10-05T12:14:48.936Z,1.73
2018-10-05T12:17:19.279Z,3.03
2018-10-05T12:19:49.687Z,3.33
2018-10-05T12:22:20.034Z,2.13
2018-10-05T12:24:50.451Z,3.43
2018-10-05T12:27:20.717Z,2.07
2018-10-05T12:29:51.041Z,2.60
2018-10-05T12:32:21.414Z,3.47
2018-10-05T12:34:51.744Z,2.67
2018-10-05T12:37:22.113Z,2.77
2018-10-05T12:39:52.396Z,3.03
2018-10-05T12:42:22.784Z,2.57
2018-10-05T12:44:53.032Z,3.20
2018-10-05T12:47:23.403Z,2.53
2018-10-05T12:49:53.728Z,2.60
2018-10-05T12:52:24.600Z,4.70
2018-10-05T12:54:54.931Z,3.73
2018-10-05T12:57:25.215Z,3.13
2018-10-05T12:59:55.504Z,2.67
2018-10-05T13:02:25.889Z,4.60
2018-10-05T13:04:56.178Z,2.97
2018-10-05T13:07:26.560Z,3.03
2018-10-05T13:09:56.899Z,2.00
2018-10-05T13:12:27.224Z,1.93
2018-10-05T13:14:57.561Z,3.83
2018-10-05T13:17:27.875Z,2.50
2018-10-05T13:19:58.275Z,1.53
2018-10-05T13:22:28.593Z,2.37
2018-10-05T13:24:58.896Z,1.67
2018-10-05T13:27:29.323Z,3.07
2018-10-05T13:29:59.673Z,4.33
2018-10-05T13:32:29.986Z,2.23
2018-10-05T13:35:00.319Z,1.83
2018-10-05T13:37:30.707Z,1.47
2018-10-05T13:40:01.045Z,1.90
2018-10-05T13:42:31.382Z,2.00
2018-10-05T13:45:01.703Z,2.10
2018-10-05T13:47:32.039Z,2.17
2018-10-05T13:50:02.402Z,2.20
2018-10-05T13:52:32.758Z,2.30
2018-10-05T13:55:03.064Z,1.47
2018-10-05T13:57:33.411Z,3.57
2018-10-05T14:00:03.899Z,2.53
2018-10-05T14:02:35.234Z,3.87
2018-10-05T14:05:05.556Z,2.27
2018-10-05T14:07:35.905Z,2.20
2018-10-05T14:10:06.469Z,1.47
2018-10-05T14:12:36.805Z,2.00
2018-10-05T14:15:07.160Z,4.90
2018-10-05T14:17:37.526Z,2.27
2018-10-05T14:20:07.879Z,3.13
2018-10-05T14:22:38.218Z,1.50
2018-10-05T14:25:08.664Z,1.50
2018-10-05T14:27:39.083Z,1.33
2018-10-05T14:30:09.417Z,1.20
2018-10-05T14:32:39.735Z,2.27
2018-10-05T14:35:10.070Z,1.93
2018-10-05T14:37:40.374Z,2.00
2018-10-05T14:40:10.728Z,2.07
2018-10-05T14:42:41.091Z,1.00
2018-10-05T14:45:11.443Z,1.37
2018-10-05T14:47:41.809Z,1.30
2018-10-05T14:50:12.184Z,1.87
2018-10-05T14:52:42.516Z,2.40
2018-10-05T14:55:12.805Z,2.67
2018-10-05T14:57:43.188Z,1.27
2018-10-05T15:00:13.508Z,1.07
2018-10-05T15:02:43.884Z,1.90
2018-10-05T15:05:14.219Z,1.17
2018-10-05T15:07:44.632Z,2.60
2018-10-05T15:10:14.968Z,1.07
2018-10-05T15:12:45.356Z,1.30
2018-10-05T15:15:15.767Z,2.37
2018-10-05T15:17:46.084Z,2.37
2018-10-05T15:20:16.467Z,2.70
2018-10-05T15:22:46.803Z,0.97
2018-10-05T15:25:17.208Z,2.10
2018-10-05T15:27:47.570Z,3.13
2018-10-05T15:30:17.958Z,2.77
2018-10-05T15:32:48.314Z,1.60
2018-10-05T15:35:18.604Z,1.50
2018-10-05T15:37:48.970Z,1.90
2018-10-05T15:40:19.253Z,1.93
2018-10-05T15:42:49.630Z,1.37
2018-10-05T15:45:19.953Z,2.00
2018-10-05T15:47:50.343Z,1.67
2018-10-05T15:50:20.701Z,1.47
2018-10-05T15:52:51.079Z,1.83
2018-10-05T15:55:21.463Z,2.63
2018-10-05T15:57:51.785Z,1.40
2018-10-05T16:00:22.144Z,1.33
2018-10-05T16:02:52.418Z,1.47
2018-10-05T16:05:22.777Z,1.10
2018-10-05T16:07:53.459Z,2.03
2018-10-05T16:10:23.802Z,2.07
2018-10-05T16:12:54.269Z,1.80
2018-10-05T16:15:24.583Z,3.23
2018-10-05T16:17:54.936Z,4.03
2018-10-05T16:20:25.330Z,2.03
2018-10-05T16:22:55.673Z,1.53
2018-10-05T16:25:26.048Z,2.90
2018-10-05T16:27:56.404Z,2.30
2018-10-05T16:30:26.727Z,2.50
2018-10-05T16:32:57.056Z,1.40
2018-10-05T16:35:27.388Z,2.03
2018-10-05T16:37:57.830Z,2.43
2018-10-05T16:40:28.186Z,1.30
2018-10-05T16:42:58.524Z,1.73
2018-10-05T16:45:28.849Z,2.83
2018-10-05T16:47:59.161Z,1.30
2018-10-05T16:50:29.473Z,2.43
2018-10-05T16:52:59.793Z,1.90
2018-10-05T16:55:30.106Z,1.40
2018-10-05T16:58:00.482Z,3.00
2018-10-05T17:00:30.791Z,1.40
2018-10-05T17:03:01.123Z,2.67
2018-10-05T17:05:31.451Z,2.10
2018-10-05T17:08:01.860Z,2.67
2018-10-05T17:10:32.299Z,2.70
2018-10-05T17:13:02.525Z,2.70
2018-10-05T17:15:32.817Z,3.07
2018-10-05T17:18:03.382Z,3.37
2018-10-05T17:20:33.731Z,2.50
2018-10-05T17:23:04.123Z,3.20
2018-10-05T17:25:34.469Z,1.73
2018-10-05T17:28:04.822Z,1.37
2018-10-05T17:30:35.092Z,2.20
2018-10-05T17:33:05.450Z,3.27
2018-10-05T17:35:35.731Z,1.50
2018-10-05T17:38:06.076Z,2.10
2018-10-05T17:40:36.435Z,3.90
2018-10-05T17:43:06.833Z,2.40
2018-10-05T17:45:37.196Z,3.37
2018-10-05T17:48:07.808Z,2.63
2018-10-05T17:50:52.751Z,2.27
2018-10-05T17:53:23.161Z,3.40
2018-10-05T17:55:53.672Z,2.83
2018-10-05T17:58:23.960Z,3.13
2018-10-05T18:00:54.312Z,1.60
2018-10-05T18:03:24.646Z,6.33
2018-10-05T18:05:55.012Z,3.40
2018-10-05T18:08:25.396Z,3.63
2018-10-05T18:10:55.692Z,2.93
2018-10-05T18:13:25.954Z,4.70
2018-10-05T18:15:56.273Z,3.60
2018-10-05T18:18:26.577Z,2.77
2018-10-05T18:20:56.942Z,4.67
2018-10-05T18:23:27.255Z,2.60
2018-10-05T18:25:57.653Z,3.47
2018-10-05T18:28:27.883Z,2.90
2018-10-05T18:30:58.226Z,3.30
2018-10-05T18:33:28.497Z,4.00
2018-10-05T18:35:58.942Z,2.87
2018-10-05T18:38:29.282Z,4.53
2018-10-05T18:40:59.649Z,4.53
2018-10-05T18:43:29.962Z,3.90
2018-10-05T18:46:00.385Z,3.77
2018-10-05T18:48:31.281Z,2.90
2018-10-05T18:51:01.652Z,6.43
2018-10-05T18:53:31.996Z,3.80
2018-10-05T18:56:19.116Z,2.60
2018-10-05T18:58:49.486Z,2.80
2018-10-05T19:01:19.907Z,3.73
2018-10-05T19:03:50.389Z,5.43
2018-10-05T19:06:20.722Z,4.43
2018-10-05T19:08:51.135Z,4.87
2018-10-05T19:11:21.513Z,7.00
2018-10-05T19:13:51.844Z,3.50
2018-10-05T19:16:22.225Z,4.20
2018-10-05T19:18:52.648Z,3.80
2018-10-05T19:21:23.188Z,5.03
2018-10-05T19:23:53.534Z,3.13
2018-10-05T19:26:24.252Z,5.23
2018-10-05T19:28:54.388Z,3.53
2018-10-05T19:31:24.810Z,4.60
2018-10-05T19:33:55.189Z,4.10
2018-10-05T19:36:25.640Z,3.20
2018-10-05T19:38:55.921Z,3.67
2018-10-05T19:41:26.320Z,6.07
2018-10-05T19:43:56.611Z,4.40
2018-10-05T19:46:27.035Z,7.27
2018-10-05T19:48:57.400Z,7.80
2018-10-05T19:51:27.804Z,3.43
2018-10-05T19:53:58.230Z,2.73
2018-10-05T19:56:35.278Z,3.80
2018-10-05T19:59:05.689Z,4.93
2018-10-05T20:01:36.101Z,3.60
2018-10-05T20:04:06.431Z,4.00
2018-10-05T20:06:36.839Z,5.07
2018-10-05T20:09:08.847Z,5.40
2018-10-05T20:11:39.190Z,4.17
2018-10-05T20:14:09.543Z,5.90
2018-10-05T20:16:39.933Z,4.23
2018-10-05T20:19:10.331Z,5.00
2018-10-05T20:21:40.678Z,5.27
2018-10-05T20:24:11.078Z,3.80
2018-10-05T20:26:41.422Z,5.33
2018-10-05T20:29:11.776Z,5.57
2018-10-05T20:31:42.122Z,3.90
2018-10-05T20:34:12.584Z,6.37
2018-10-05T20:36:43.106Z,4.83
2018-10-05T20:39:13.353Z,5.57
2018-10-05T20:41:43.663Z,5.70
2018-10-05T20:44:14.024Z,4.40
2018-10-05T20:46:44.435Z,6.80
2018-10-05T20:49:14.742Z,4.90
2018-10-05T20:51:45.124Z,4.83
2018-10-05T20:54:15.381Z,4.13
2018-10-05T20:56:45.715Z,3.50
2018-10-05T20:59:16.082Z,4.90
2018-10-05T21:01:46.419Z,3.97
2018-10-05T21:04:16.830Z,5.37
2018-10-05T21:06:47.233Z,4.07
2018-10-05T21:09:17.612Z,6.40
2018-10-05T21:11:47.963Z,7.03
2018-10-05T21:14:18.337Z,3.63
2018-10-05T21:16:48.682Z,3.67
2018-10-05T21:19:19.039Z,6.37
2018-10-05T21:21:49.400Z,3.67
2018-10-05T21:24:19.711Z,8.43
2018-10-05T21:26:50.122Z,6.23
2018-10-05T21:29:20.395Z,3.73
2018-10-05T21:31:50.744Z,5.47
2018-10-05T21:34:21.083Z,5.77
2018-10-05T21:36:51.467Z,5.40
2018-10-05T21:39:21.826Z,6.67
2018-10-05T21:41:52.141Z,4.47
2018-10-05T21:44:22.476Z,4.57
2018-10-05T21:46:52.824Z,7.37
2018-10-05T21:49:23.106Z,7.67
2018-10-05T21:51:53.440Z,6.43
2018-10-05T21:54:23.811Z,4.33
2018-10-05T21:56:54.150Z,5.53
2018-10-05T21:59:24.517Z,5.73
2018-10-05T22:01:54.891Z,4.33
2018-10-05T22:04:25.248Z,7.20
2018-10-05T22:06:55.551Z,3.67
2018-10-05T22:09:25.872Z,7.23
2018-10-05T22:11:56.258Z,5.50
2018-10-05T22:14:26.583Z,6.53
2018-10-05T22:16:56.950Z,5.47
2018-10-05T22:19:27.486Z,4.43
2018-10-05T22:22:03.058Z,5.57
2018-10-05T22:24:33.382Z,7.37
2018-10-05T22:27:03.714Z,7.37
2018-10-05T22:29:34.040Z,5.57
2018-10-05T22:32:05.336Z,6.87
2018-10-05T22:34:35.696Z,5.07
2018-10-05T22:37:06.038Z,6.60
2018-10-05T22:39:36.337Z,7.23
2018-10-05T22:42:06.658Z,5.03
2018-10-05T22:44:37.016Z,6.27
2018-10-05T22:47:07.388Z,6.20
2018-10-05T22:49:37.726Z,5.60
2018-10-05T22:52:08.514Z,6.33
2018-10-05T22:54:38.816Z,5.47
2018-10-05T22:57:09.178Z,6.87
2018-10-05T22:59:39.502Z,8.37
2018-10-05T23:02:09.815Z,6.93
2018-10-05T23:04:40.107Z,7.60
2018-10-05T23:07:10.489Z,4.97
2018-10-05T23:09:40.786Z,8.07
2018-10-05T23:12:11.148Z,6.50
2018-10-05T23:14:41.460Z,5.13
2018-10-05T23:17:11.868Z,7.43
2018-10-05T23:19:42.282Z,6.10
2018-10-05T23:22:12.602Z,6.13
2018-10-05T23:24:42.964Z,8.50
2018-10-05T23:27:13.395Z,7.97
2018-10-05T23:29:43.750Z,6.00
2018-10-05T23:32:14.044Z,6.53
2018-10-05T23:34:44.355Z,6.20
2018-10-05T23:37:14.925Z,7.43
2018-10-05T23:39:45.270Z,8.17
2018-10-05T23:42:15.748Z,8.43
2018-10-05T23:44:46.062Z,8.27
2018-10-05T23:47:16.447Z,6.67
2018-10-05T23:49:46.756Z,7.03
2018-10-05T23:52:34.384Z,7.53
2018-10-05T23:55:05.198Z,5.90
2018-10-05T23:57:36.471Z,6.90
